Time;durP1;ratioP1;P1;durP2;ratioP2;P2;SDS_P1;SDS_P2;PMS_P1;PMS_P2;Temp;Humidity;BMP_temperature;BMP_pressure;BME280_temperature;BME280_humidity;BME280_pressure;Samples;Min_cycle;Max_cycle;Signal;HPM_P1;HPM_P2
2022/05/10 00:02:02;;;;;;;7.63;5.03;;;15.90;99.90;;;;;;4992051;28;20026;-82
2022/05/10 00:04:28;;;;;;;10.30;5.38;;;15.80;99.90;;;;;;4990429;28;20031;-81
2022/05/10 00:06:54;;;;;;;6.15;5.50;;;15.80;99.90;;;;;;4990894;28;20068;-81
2022/05/10 00:09:23;;;;;;;11.65;5.03;;;15.80;99.90;;;;;;4992169;28;20390;-81
2022/05/10 00:11:48;;;;;;;6.40;4.75;;;15.80;99.90;;;;;;4990466;28;20038;-82
2022/05/10 00:14:14;;;;;;;7.40;5.00;;;15.80;99.90;;;;;;4990596;28;20047;-81
2022/05/10 00:16:43;;;;;;;9.38;5.40;;;15.80;99.90;;;;;;4990529;28;20480;-81
2022/05/10 00:19:15;;;;;;;6.68;5.05;;;15.80;99.90;;;;;;4991830;28;20052;-81
2022/05/10 00:21:41;;;;;;;17.10;5.32;;;15.70;99.90;;;;;;4991700;28;20027;-82
2022/05/10 00:24:07;;;;;;;7.95;5.13;;;15.70;99.90;;;;;;4991872;28;20047;-81
2022/05/10 00:26:32;;;;;;;6.28;5.25;;;15.70;99.90;;;;;;4991865;28;20026;-81
2022/05/10 00:29:00;;;;;;;7.30;4.78;;;15.70;99.90;;;;;;4991788;28;20026;-82
2022/05/10 00:31:26;;;;;;;11.05;5.80;;;15.70;99.90;;;;;;4991562;28;20034;-81
2022/05/10 00:33:52;;;;;;;8.93;5.28;;;15.70;99.90;;;;;;4991396;28;20433;-81
2022/05/10 00:36:21;;;;;;;9.57;5.13;;;15.80;99.90;;;;;;4993406;28;20065;-82
2022/05/10 00:38:47;;;;;;;8.70;4.82;;;15.70;99.90;;;;;;4995141;28;20030;-81
2022/05/10 00:41:34;;;;;;;9.07;5.18;;;15.70;99.90;;;;;;4995073;28;20629;-81
2022/05/10 00:44:16;;;;;;;12.07;5.40;;;15.70;99.90;;;;;;4993790;28;20034;-82
2022/05/10 00:46:46;;;;;;;9.65;4.40;;;15.60;99.90;;;;;;4989569;28;20129;-82
2022/05/10 00:49:51;;;;;;;8.65;5.20;;;15.70;99.90;;;;;;4994938;28;20096;-81
2022/05/10 00:52:27;;;;;;;10.95;5.35;;;15.60;99.90;;;;;;4964410;28;20156;-81
2022/05/10 00:55:19;;;;;;;6.45;5.32;;;15.60;99.90;;;;;;4994759;28;20026;-82
2022/05/10 00:58:00;;;;;;;7.45;5.28;;;15.60;99.90;;;;;;4970909;28;20105;-82
2022/05/10 01:00:32;;;;;;;13.83;5.40;;;15.60;99.90;;;;;;4994491;28;20026;-81
2022/05/10 01:03:15;;;;;;;6.25;4.70;;;15.60;99.90;;;;;;4978951;28;20273;-82
2022/05/10 01:06:06;;;;;;;8.48;5.82;;;15.60;99.90;;;;;;5008613;28;20022;-82
2022/05/10 01:08:50;;;;;;;11.57;5.25;;;15.50;99.90;;;;;;5013931;28;20026;-81
2022/05/10 01:11:22;;;;;;;5.53;4.88;;;15.60;99.90;;;;;;5013837;28;20117;-82
2022/05/10 01:14:26;;;;;;;8.45;5.82;;;15.50;99.90;;;;;;5013868;28;20045;-81
2022/05/10 01:16:52;;;;;;;7.57;5.05;;;15.50;99.90;;;;;;5013990;28;20395;-81
2022/05/10 01:19:18;;;;;;;5.35;4.85;;;15.50;99.90;;;;;;5013821;28;20022;-82
2022/05/10 01:22:08;;;;;;;12.23;5.40;;;15.40;99.90;;;;;;5014139;28;20030;-81
2022/05/10 01:25:09;;;;;;;8.70;5.03;;;15.40;99.90;;;;;;5013711;28;20419;-82
2022/05/10 01:27:34;;;;;;;10.13;5.22;;;15.40;99.90;;;;;;5013927;28;20022;-81
2022/05/10 01:30:03;;;;;;;7.47;5.13;;;15.40;99.90;;;;;;5013542;28;20527;-81
2022/05/10 01:35:44;;;;;;;10.30;5.32;;;15.30;99.90;;;;;;5014025;28;20072;-81
2022/05/10 01:38:36;;;;;;;5.68;5.15;;;15.30;99.90;;;;;;5013799;28;20018;-81
2022/05/10 01:41:27;;;;;;;5.07;4.60;;;15.40;99.90;;;;;;5013552;28;20452;-81
2022/05/10 01:44:13;;;;;;;7.60;5.82;;;15.30;99.90;;;;;;5013554;28;20109;-81
2022/05/10 01:46:39;;;;;;;8.02;5.20;;;15.30;99.90;;;;;;5013177;28;20033;-81
2022/05/10 01:49:17;;;;;;;12.13;6.32;;;15.30;99.90;;;;;;5013304;28;20465;-81
2022/05/10 01:52:03;;;;;;;6.03;5.32;;;15.40;99.90;;;;;;5013468;28;20454;-82
2022/05/10 01:54:29;;;;;;;7.63;4.80;;;15.40;99.90;;;;;;5013191;28;20057;-81
2022/05/10 01:56:55;;;;;;;8.55;5.40;;;15.30;99.90;;;;;;5013228;28;20433;-81
2022/05/10 01:59:21;;;;;;;7.57;5.60;;;15.30;99.90;;;;;;5011970;28;20026;-81
2022/05/10 02:01:46;;;;;;;9.10;4.55;;;15.30;99.90;;;;;;5013063;28;20036;-81
2022/05/10 02:04:17;;;;;;;8.55;5.55;;;15.30;99.90;;;;;;5013110;28;20033;-81
2022/05/10 02:06:59;;;;;;;10.23;5.95;;;15.30;99.90;;;;;;5012120;28;20451;-81
2022/05/10 02:09:39;;;;;;;;;;;15.20;99.90;;;;;;5012168;28;20033;-81
2022/05/10 02:12:16;;;;;;;6.80;4.93;;;15.20;99.90;;;;;;5012809;28;19916;-81
2022/05/10 02:15:23;;;;;;;6.43;5.53;;;15.20;99.90;;;;;;5013086;28;20029;-81
2022/05/10 02:18:17;;;;;;;7.03;5.38;;;15.20;99.90;;;;;;4914252;29;20419;-81
2022/05/10 02:20:48;;;;;;;10.05;5.95;;;15.30;99.90;;;;;;4914224;29;20125;-82
2022/05/10 02:23:18;;;;;;;5.75;5.25;;;15.30;99.90;;;;;;4982507;28;20052;-81
2022/05/10 02:25:49;;;;;;;8.85;4.75;;;15.30;99.90;;;;;;5011537;28;20715;-81
2022/05/10 02:28:21;;;;;;;6.72;5.25;;;15.20;99.90;;;;;;5012469;28;20041;-81
2022/05/10 02:30:50;;;;;;;11.35;4.97;;;15.20;99.90;;;;;;5012745;28;20033;-81
2022/05/10 02:33:16;;;;;;;10.82;5.63;;;15.20;99.90;;;;;;5012913;28;20022;-81
2022/05/10 02:35:58;;;;;;;18.92;5.85;;;15.20;99.90;;;;;;5011364;28;20029;-81
2022/05/10 02:38:44;;;;;;;7.65;5.70;;;15.20;99.90;;;;;;5011426;28;20022;-81
2022/05/10 02:41:27;;;;;;;7.18;5.35;;;15.20;99.90;;;;;;4994600;28;20041;-81
2022/05/10 02:43:56;;;;;;;12.95;6.20;;;15.20;99.90;;;;;;5012535;28;20076;-81
2022/05/10 02:46:22;;;;;;;7.82;5.55;;;15.20;99.90;;;;;;5003325;28;20006;-81
2022/05/10 02:48:48;;;;;;;7.50;5.00;;;15.20;99.90;;;;;;4992642;28;20392;-81
2022/05/10 02:51:15;;;;;;;7.97;6.20;;;15.20;99.90;;;;;;4992734;28;20383;-81
2022/05/10 02:53:42;;;;;;;7.22;5.57;;;15.20;99.90;;;;;;4975392;28;20026;-81
2022/05/10 02:56:14;;;;;;;10.30;4.88;;;15.20;99.90;;;;;;4996294;28;20018;-81
2022/05/10 02:58:44;;;;;;;6.57;5.68;;;15.20;99.90;;;;;;5011878;28;20471;-81
2022/05/10 03:01:35;;;;;;;8.68;5.40;;;15.20;99.90;;;;;;5011144;28;20506;-82
2022/05/10 03:04:03;;;;;;;7.00;5.32;;;15.20;99.90;;;;;;5011096;28;20041;-81
2022/05/10 03:06:29;;;;;;;7.55;5.50;;;15.20;99.90;;;;;;5011995;28;20037;-81
2022/05/10 03:08:56;;;;;;;9.57;5.53;;;15.20;99.90;;;;;;5012047;28;20026;-81
2022/05/10 03:11:22;;;;;;;10.07;5.85;;;15.30;99.90;;;;;;5012048;28;20034;-82
2022/05/10 03:13:47;;;;;;;6.80;5.95;;;15.20;99.90;;;;;;5011839;28;20034;-82
2022/05/10 03:16:17;;;;;;;6.05;5.45;;;15.20;99.90;;;;;;5012052;28;20357;-81
2022/05/10 03:18:44;;;;;;;9.27;5.60;;;15.20;99.90;;;;;;5012028;28;20105;-81
2022/05/10 03:21:10;;;;;;;8.50;5.45;;;15.20;99.90;;;;;;5010709;28;20510;-82
2022/05/10 03:23:36;;;;;;;7.30;5.70;;;15.20;99.90;;;;;;5010769;28;20030;-82
2022/05/10 03:26:02;;;;;;;6.78;5.63;;;15.20;99.90;;;;;;5010821;28;20480;-81
2022/05/10 03:28:28;;;;;;;9.45;5.65;;;15.20;99.90;;;;;;5011846;28;20113;-81
2022/05/10 03:30:54;;;;;;;8.85;5.57;;;15.20;99.90;;;;;;5011939;28;20080;-81
2022/05/10 03:33:21;;;;;;;10.32;5.30;;;15.20;99.90;;;;;;5010711;28;20030;-81
2022/05/10 03:35:47;;;;;;;9.95;5.70;;;15.20;99.90;;;;;;5010608;28;20526;-81
2022/05/10 03:38:12;;;;;;;6.88;5.40;;;15.20;99.90;;;;;;5010622;28;20026;-81
2022/05/10 03:40:41;;;;;;;8.60;5.03;;;15.30;99.90;;;;;;5011889;28;20030;-81
2022/05/10 03:43:08;;;;;;;8.13;5.57;;;15.20;99.90;;;;;;5011922;28;20036;-81
2022/05/10 03:45:35;;;;;;;5.80;5.20;;;15.20;99.90;;;;;;5011925;28;20346;-81
2022/05/10 03:48:01;;;;;;;12.27;5.80;;;15.20;99.90;;;;;;5011897;28;20036;-81
2022/05/10 03:50:27;;;;;;;7.95;4.82;;;15.30;99.90;;;;;;5011813;28;20030;-81
2022/05/10 03:52:53;;;;;;;7.97;5.22;;;15.20;99.90;;;;;;5011959;28;20029;-81
2022/05/10 03:55:22;;;;;;;6.45;5.63;;;15.20;99.90;;;;;;5011709;28;20026;-81
2022/05/10 03:57:52;;;;;;;15.07;5.38;;;15.20;99.90;;;;;;5011733;28;20033;-81
2022/05/10 04:00:22;;;;;;;9.15;6.03;;;15.20;99.90;;;;;;5011773;28;20438;-81
2022/05/10 04:02:49;;;;;;;8.55;5.90;;;15.20;99.90;;;;;;5011588;28;20057;-81
2022/05/10 04:05:17;;;;;;;7.15;5.13;;;15.20;99.90;;;;;;5011801;28;20034;-81
2022/05/10 04:07:43;;;;;;;8.77;5.20;;;15.20;99.90;;;;;;5010400;28;20030;-81
2022/05/10 04:10:12;;;;;;;6.65;5.18;;;15.20;99.90;;;;;;5013279;28;20436;-81
2022/05/10 04:12:39;;;;;;;6.22;5.60;;;15.20;99.90;;;;;;5014034;28;20100;-81
2022/05/10 04:15:07;;;;;;;8.50;5.25;;;15.20;99.90;;;;;;5015291;28;20030;-81
2022/05/10 04:17:33;;;;;;;5.72;5.22;;;15.20;99.90;;;;;;5015456;28;20068;-81
2022/05/10 04:19:58;;;;;;;11.75;5.57;;;15.20;99.90;;;;;;5015546;28;20388;-82
2022/05/10 04:22:24;;;;;;;11.77;5.75;;;15.10;99.90;;;;;;5013981;28;20029;-82
2022/05/10 04:24:50;;;;;;;7.47;5.68;;;15.10;99.90;;;;;;5015142;28;20025;-81
2022/05/10 04:27:16;;;;;;;7.60;5.40;;;15.10;99.90;;;;;;5015199;28;20462;-81
2022/05/10 04:29:42;;;;;;;10.20;5.30;;;15.00;99.90;;;;;;5014976;28;20488;-81
2022/05/10 04:32:08;;;;;;;8.60;5.90;;;15.00;99.90;;;;;;5010451;28;20093;-81
2022/05/10 04:34:37;;;;;;;8.70;5.88;;;15.00;99.90;;;;;;5016160;28;20037;-81
2022/05/10 04:37:02;;;;;;;12.15;5.95;;;15.00;99.90;;;;;;5016092;28;20018;-81
2022/05/10 04:41:24;;;;;;;12.60;5.88;;;15.00;99.90;;;;;;5009278;28;20037;-81
2022/05/10 04:42:14;;;;;;;8.38;5.40;;;15.00;99.90;;;;;;4998552;28;20118;-81
2022/05/10 04:44:40;;;;;;;8.82;6.10;;;15.00;99.90;;;;;;5003113;28;20018;-81
2022/05/10 04:47:08;;;;;;;6.03;5.40;;;15.00;99.90;;;;;;5005729;28;20037;-81
2022/05/10 04:49:34;;;;;;;11.52;6.47;;;15.00;99.90;;;;;;5007346;28;20018;-81
2022/05/10 04:52:00;;;;;;;7.20;6.18;;;15.00;99.90;;;;;;5007741;28;20026;-81
2022/05/10 04:54:25;;;;;;;8.18;5.43;;;15.00;99.90;;;;;;5006058;28;20018;-81
2022/05/10 04:56:51;;;;;;;9.23;5.40;;;15.00;99.90;;;;;;5002222;28;20022;-81
2022/05/10 04:59:17;;;;;;;8.57;5.97;;;15.10;99.90;;;;;;4998023;28;20077;-81
2022/05/10 05:01:42;;;;;;;9.38;6.05;;;15.10;99.90;;;;;;4998479;28;20030;-81
2022/05/10 05:04:09;;;;;;;6.38;5.57;;;15.10;99.90;;;;;;4996046;28;20555;-81
2022/05/10 05:06:39;;;;;;;9.15;6.10;;;15.10;99.90;;;;;;4996072;28;20381;-81
2022/05/10 05:09:05;;;;;;;16.77;6.38;;;15.20;99.90;;;;;;4978494;28;20395;-81
2022/05/10 05:11:31;;;;;;;14.38;7.13;;;15.30;99.90;;;;;;4995792;28;20030;-80
2022/05/10 05:13:57;;;;;;;13.43;5.55;;;15.30;99.90;;;;;;4994230;28;20493;-81
2022/05/10 05:16:22;;;;;;;10.00;5.47;;;15.30;99.90;;;;;;4995930;28;20034;-81
2022/05/10 05:18:55;;;;;;;7.28;6.03;;;15.30;99.90;;;;;;4998685;28;20069;-82
2022/05/10 05:21:20;;;;;;;15.80;6.93;;;15.40;99.90;;;;;;5010601;28;20040;-80
2022/05/10 05:23:46;;;;;;;12.57;6.25;;;15.40;99.90;;;;;;5013149;28;20120;-81
2022/05/10 05:26:12;;;;;;;8.80;5.97;;;15.50;99.90;;;;;;5011734;28;20087;-76
2022/05/10 05:28:38;;;;;;;12.43;6.55;;;15.50;99.90;;;;;;5011243;28;20580;-76
2022/05/10 05:31:05;;;;;;;10.43;5.80;;;15.50;99.90;;;;;;5011073;28;20034;-76
2022/05/10 05:33:31;;;;;;;15.30;5.45;;;15.60;99.90;;;;;;5009724;28;20026;-76
2022/05/10 05:35:57;;;;;;;12.75;5.57;;;15.60;99.90;;;;;;5011099;28;20018;-76
2022/05/10 05:38:24;;;;;;;10.40;6.40;;;15.70;99.90;;;;;;5011156;28;20032;-76
2022/05/10 05:40:50;;;;;;;13.07;6.30;;;15.70;99.90;;;;;;5012902;28;20026;-76
2022/05/10 05:43:23;;;;;;;19.75;6.72;;;15.80;99.90;;;;;;5012939;28;20030;-75
2022/05/10 05:45:50;;;;;;;11.00;6.25;;;15.90;99.90;;;;;;5012616;28;20032;-76
2022/05/10 05:48:17;;;;;;;9.90;6.13;;;16.00;99.90;;;;;;5011318;28;20041;-76
2022/05/10 05:50:43;;;;;;;7.45;6.22;;;16.00;99.90;;;;;;5012464;28;20026;-76
2022/05/10 05:53:09;;;;;;;12.27;6.22;;;16.10;99.90;;;;;;5011317;28;20033;-76
2022/05/10 05:55:35;;;;;;;11.45;6.30;;;16.10;99.90;;;;;;5012618;28;20057;-76
2022/05/10 05:58:01;;;;;;;10.15;6.35;;;16.10;99.90;;;;;;5012522;28;20032;-76
2022/05/10 06:00:28;;;;;;;11.98;5.70;;;16.20;99.90;;;;;;5012251;28;20026;-76
2022/05/10 06:02:54;;;;;;;6.70;5.80;;;16.30;99.90;;;;;;5011080;28;20419;-76
2022/05/10 06:05:22;;;;;;;10.25;6.18;;;16.30;99.90;;;;;;5012278;28;20030;-76
2022/05/10 06:07:47;;;;;;;9.07;5.53;;;16.40;99.90;;;;;;5011040;28;20492;-76
2022/05/10 06:10:14;;;;;;;9.98;5.70;;;16.50;99.90;;;;;;5012176;28;20107;-76
2022/05/10 06:12:41;;;;;;;9.20;5.50;;;16.50;99.90;;;;;;5010558;28;20045;-76
2022/05/10 06:15:11;;;;;;;12.38;6.72;;;16.60;99.90;;;;;;5012174;28;20484;-76
2022/05/10 06:17:38;;;;;;;8.55;6.25;;;16.70;99.90;;;;;;5012290;28;20033;-76
2022/05/10 06:20:09;;;;;;;9.27;5.78;;;16.70;99.90;;;;;;5012012;28;20219;-76
2022/05/10 06:22:36;;;;;;;11.45;6.47;;;16.80;99.90;;;;;;5012092;28;20030;-76
2022/05/10 06:25:03;;;;;;;15.88;7.13;;;16.90;99.90;;;;;;5011943;28;20022;-77
2022/05/10 06:27:29;;;;;;;8.88;5.95;;;16.90;99.90;;;;;;5012065;28;20036;-77
2022/05/10 06:29:55;;;;;;;9.75;6.15;;;17.00;99.90;;;;;;5010529;28;20026;-76
2022/05/10 06:32:26;;;;;;;12.57;5.82;;;17.00;99.90;;;;;;5011538;28;20468;-76
2022/05/10 06:34:52;;;;;;;13.60;5.95;;;17.10;99.90;;;;;;5006452;28;20033;-76
2022/05/10 06:40:06;;;;;;;10.80;5.88;;;17.30;99.90;;;;;;5012095;28;20040;-76
2022/05/10 06:42:31;;;;;;;6.40;5.70;;;17.40;99.90;;;;;;4993811;28;20071;-76
2022/05/10 06:44:57;;;;;;;11.85;6.10;;;17.40;99.90;;;;;;5011629;28;20466;-76
2022/05/10 06:47:23;;;;;;;11.13;5.25;;;17.50;99.90;;;;;;5010427;28;20032;-76
2022/05/10 06:49:48;;;;;;;10.70;5.90;;;17.50;99.90;;;;;;5011537;28;20111;-76
2022/05/10 06:52:18;;;;;;;8.40;6.22;;;17.60;99.90;;;;;;5011378;28;20044;-77
2022/05/10 06:54:44;;;;;;;9.45;5.95;;;17.70;99.90;;;;;;4998232;28;20022;-76
2022/05/10 06:57:10;;;;;;;12.05;5.60;;;17.70;99.90;;;;;;4991954;28;20025;-77
2022/05/10 06:59:36;;;;;;;7.25;5.40;;;17.80;99.90;;;;;;4991791;28;20189;-77
2022/05/10 07:02:02;;;;;;;11.55;5.53;;;17.90;99.90;;;;;;4991717;28;20520;-76
2022/05/10 07:04:28;;;;;;;8.43;5.28;;;18.00;99.90;;;;;;4991707;28;20113;-77
2022/05/10 07:06:53;;;;;;;7.05;4.85;;;18.00;99.90;;;;;;4990815;28;20037;-76
2022/05/10 07:09:19;;;;;;;6.35;5.47;;;18.00;99.90;;;;;;4991565;28;20026;-77
2022/05/10 07:11:46;;;;;;;10.00;5.40;;;18.00;99.90;;;;;;4991432;28;20030;-76
2022/05/10 07:14:12;;;;;;;7.38;5.63;;;18.00;99.90;;;;;;4991573;28;20042;-76
2022/05/10 07:16:38;;;;;;;9.68;5.35;;;18.10;99.90;;;;;;4991687;28;20369;-76
2022/05/10 07:19:04;;;;;;;10.25;5.65;;;18.10;99.90;;;;;;4990533;28;20029;-76
2022/05/10 07:21:30;;;;;;;9.70;6.03;;;18.30;99.90;;;;;;4991642;28;20030;-76
2022/05/10 07:23:56;;;;;;;6.72;5.63;;;18.40;99.90;;;;;;4991600;28;20464;-76
2022/05/10 07:26:22;;;;;;;8.60;5.78;;;18.60;99.90;;;;;;4991664;28;20161;-76
2022/05/10 07:28:47;;;;;;;6.07;5.50;;;18.70;99.90;;;;;;4991423;28;20026;-76
2022/05/10 07:31:14;;;;;;;10.73;5.88;;;18.70;99.90;;;;;;4990115;28;20037;-76
2022/05/10 07:33:40;;;;;;;8.45;5.65;;;18.70;99.90;;;;;;4991605;28;20014;-76
2022/05/10 07:36:23;;;;;;;7.10;5.50;;;18.90;99.90;;;;;;4974090;28;20447;-76
2022/05/10 07:38:50;;;;;;;6.00;5.32;;;18.90;99.90;;;;;;4990164;28;20032;-76
2022/05/10 07:41:19;;;;;;;9.95;5.00;;;18.90;99.90;;;;;;4991276;28;20074;-76
2022/05/10 07:43:47;;;;;;;10.25;5.63;;;18.90;99.90;;;;;;4991556;28;20400;-76
2022/05/10 07:46:13;;;;;;;8.85;4.97;;;19.00;99.90;;;;;;4993675;28;20085;-76
2022/05/10 07:48:39;;;;;;;11.27;5.53;;;19.10;99.90;;;;;;4995284;28;20105;-76
2022/05/10 07:51:05;;;;;;;9.65;4.97;;;19.00;99.90;;;;;;4995141;28;20061;-76
2022/05/10 07:53:32;;;;;;;8.20;5.57;;;19.10;99.90;;;;;;4995348;28;20029;-76
2022/05/10 07:55:59;;;;;;;11.32;4.72;;;19.10;99.90;;;;;;4995302;28;20117;-76
2022/05/10 07:58:27;;;;;;;7.43;5.18;;;19.20;99.90;;;;;;4993968;28;20110;-76
2022/05/10 08:00:53;;;;;;;6.70;4.78;;;19.20;99.90;;;;;;4995190;28;20061;-76
2022/05/10 08:03:21;;;;;;;10.43;5.97;;;19.20;99.90;;;;;;4995218;28;20057;-76
2022/05/10 08:05:47;;;;;;;8.07;5.47;;;19.20;99.90;;;;;;4995264;28;20027;-76
2022/05/10 08:08:17;;;;;;;16.27;5.97;;;19.30;99.90;;;;;;4995021;28;20469;-76
2022/05/10 08:10:44;;;;;;;13.70;6.03;;;19.30;99.90;;;;;;4994947;28;20033;-77
2022/05/10 08:13:19;;;;;;;9.77;5.40;;;19.30;99.90;;;;;;4993537;28;20050;-76
2022/05/10 08:15:45;;;;;;;6.82;5.78;;;19.50;99.90;;;;;;4994831;28;20026;-76
2022/05/10 08:18:12;;;;;;;10.05;5.20;;;19.60;99.90;;;;;;4994643;28;20354;-77
2022/05/10 08:20:39;;;;;;;13.73;5.85;;;19.70;99.90;;;;;;4994648;28;20496;-77
2022/05/10 08:23:06;;;;;;;16.00;5.75;;;19.70;99.90;;;;;;4993353;28;20022;-76
2022/05/10 08:25:33;;;;;;;9.90;5.30;;;19.80;99.90;;;;;;4994586;28;20034;-77
2022/05/10 08:27:59;;;;;;;8.10;5.43;;;19.90;99.90;;;;;;4994576;28;20038;-76
2022/05/10 08:30:25;;;;;;;12.52;5.82;;;19.80;99.90;;;;;;4994330;28;20055;-76
2022/05/10 08:32:51;;;;;;;11.85;4.78;;;19.90;99.90;;;;;;4994650;28;20027;-76
2022/05/10 08:35:17;;;;;;;10.68;4.32;;;20.00;99.90;;;;;;4994402;28;20030;-76
2022/05/10 08:37:46;;;;;;;9.63;5.03;;;20.00;99.90;;;;;;5003069;28;20014;-77
2022/05/10 08:40:31;;;;;;;9.73;4.93;;;20.10;99.40;;;;;;5014048;28;20499;-76
2022/05/10 08:43:01;;;;;;;6.88;5.10;;;20.00;99.10;;;;;;5013858;28;20026;-77
2022/05/10 08:45:29;;;;;;;6.90;4.85;;;20.10;98.70;;;;;;4996132;28;20640;-76
2022/05/10 08:47:55;;;;;;;12.75;5.47;;;20.20;99.90;;;;;;5013379;28;20097;-76
2022/05/10 08:50:21;;;;;;;6.88;5.30;;;20.10;99.50;;;;;;4996547;28;20118;-76
2022/05/10 08:52:51;;;;;;;5.75;4.03;;;20.10;98.60;;;;;;4994152;28;20026;-76
2022/05/10 08:55:23;;;;;;;7.43;4.90;;;20.00;98.90;;;;;;4994135;28;20026;-76
2022/05/10 08:57:53;;;;;;;14.35;5.95;;;20.00;99.90;;;;;;4975511;28;20058;-77
2022/05/10 09:00:43;;;;;;;6.10;4.50;;;20.10;99.00;;;;;;4993840;28;20058;-76
2022/05/10 09:03:27;;;;;;;4.97;4.25;;;20.20;98.50;;;;;;4993858;28;20018;-76
2022/05/10 09:05:59;;;;;;;9.02;4.63;;;20.20;99.00;;;;;;4976393;28;20039;-76
2022/05/10 09:08:32;;;;;;;13.27;4.35;;;20.20;98.20;;;;;;4993808;28;20030;-77
2022/05/10 09:11:04;;;;;;;8.18;4.85;;;20.20;98.90;;;;;;4992315;28;20058;-76
2022/05/10 09:13:31;;;;;;;7.70;5.15;;;20.20;99.90;;;;;;4981351;28;20046;-77
2022/05/10 09:15:59;;;;;;;12.75;4.70;;;20.30;99.90;;;;;;4974447;28;20054;-73
2022/05/10 09:18:40;;;;;;;11.82;4.95;;;20.50;99.80;;;;;;4974083;28;20019;-73
2022/05/10 09:21:32;;;;;;;10.05;4.22;;;20.50;99.90;;;;;;4972833;28;20031;-73
2022/05/10 09:24:09;;;;;;;14.68;5.88;;;20.60;99.50;;;;;;4974214;28;20027;-73
2022/05/10 09:27:02;;;;;;;9.13;4.80;;;20.60;99.90;;;;;;4974039;28;20117;-73
2022/05/10 09:29:44;;;;;;;12.95;5.75;;;20.60;99.90;;;;;;4965729;28;20138;-73
2022/05/10 09:35:15;;;;;;;9.73;5.45;;;20.70;99.90;;;;;;4974261;28;20090;-73
2022/05/10 09:38:08;;;;;;;6.10;4.68;;;20.80;99.90;;;;;;4972637;28;20488;-74
2022/05/10 09:40:46;;;;;;;12.70;5.15;;;20.90;99.90;;;;;;4967768;28;20035;-73
2022/05/10 09:43:32;;;;;;;10.30;5.45;;;20.90;98.60;;;;;;4973808;28;20082;-73
2022/05/10 09:46:04;;;;;;;17.60;5.82;;;21.00;97.70;;;;;;4972236;28;20395;-74
2022/05/10 09:48:30;;;;;;;9.32;4.57;;;21.00;98.70;;;;;;4973784;28;20033;-73
2022/05/10 09:50:56;;;;;;;17.42;5.20;;;21.10;99.70;;;;;;4972237;28;20400;-74
2022/05/10 09:53:23;;;;;;;10.85;4.93;;;21.20;99.80;;;;;;4973499;28;20023;-74
2022/05/10 09:56:27;;;;;;;14.00;5.38;;;21.30;99.10;;;;;;4972312;28;20366;-76
2022/05/10 09:59:04;;;;;;;10.65;4.85;;;21.40;99.40;;;;;;4973554;28;20110;-77
2022/05/10 10:01:58;;;;;;;8.63;4.93;;;21.50;99.30;;;;;;4971926;28;20034;-76
2022/05/10 10:04:34;;;;;;;6.75;5.10;;;21.50;99.80;;;;;;4971117;28;20089;-77
2022/05/10 10:07:03;;;;;;;7.88;3.85;;;21.70;99.60;;;;;;4973288;28;20037;-77
2022/05/10 10:09:31;;;;;;;5.63;4.85;;;21.80;99.20;;;;;;4971959;28;20057;-76
2022/05/10 10:11:58;;;;;;;9.73;5.97;;;22.00;97.70;;;;;;4973080;28;20103;-76
2022/05/10 10:14:43;;;;;;;6.10;4.93;;;22.10;97.00;;;;;;4992195;28;20042;-77
2022/05/10 10:17:36;;;;;;;7.47;5.05;;;21.90;97.50;;;;;;4992537;28;20073;-77
2022/05/10 10:20:02;;;;;;;;;;;21.90;98.50;;;;;;4992889;28;20030;-74
2022/05/10 10:22:44;;;;;;;7.72;5.22;;;22.10;98.40;;;;;;4992715;28;19910;-73
2022/05/10 10:25:26;;;;;;;;;;;22.20;98.10;;;;;;4991519;28;20559;-74
2022/05/10 10:28:04;;;;;;;9.15;5.60;;;22.10;99.10;;;;;;4992573;28;19913;-73
2022/05/10 10:30:37;;;;;;;10.02;5.57;;;22.50;98.20;;;;;;4990817;28;20022;-77
2022/05/10 10:33:19;;;;;;;13.40;5.75;;;22.50;97.00;;;;;;4992349;28;20022;-76
2022/05/10 10:35:47;;;;;;;;;;;22.50;98.40;;;;;;4991409;28;20052;-74
2022/05/10 10:38:38;;;;;;;11.55;5.32;;;22.60;97.50;;;;;;4992396;28;19932;-73
2022/05/10 10:41:10;;;;;;;13.90;5.15;;;22.50;97.30;;;;;;4994926;28;20109;-73
2022/05/10 10:43:58;;;;;;;6.57;5.07;;;22.80;96.80;;;;;;4992118;28;20029;-73
2022/05/10 10:47:01;;;;;;;8.13;5.07;;;22.70;96.40;;;;;;4991867;28;20170;-76
2022/05/10 10:49:53;;;;;;;10.30;5.45;;;22.90;96.00;;;;;;4990637;28;20047;-77
2022/05/10 10:52:19;;;;;;;9.03;5.00;;;23.10;94.40;;;;;;4991581;28;20058;-77
2022/05/10 10:54:48;;;;;;;9.25;4.82;;;23.20;93.70;;;;;;4991843;28;20029;-77
2022/05/10 10:57:27;;;;;;;8.93;5.03;;;23.00;94.60;;;;;;4991763;28;20034;-76
2022/05/10 11:00:16;;;;;;;4.93;4.35;;;23.10;93.80;;;;;;4991812;28;20053;-76
2022/05/10 11:03:06;;;;;;;9.80;5.30;;;23.30;93.10;;;;;;4990710;28;20035;-76
2022/05/10 11:05:50;;;;;;;11.95;4.32;;;23.20;92.90;;;;;;4993045;28;20041;-76
2022/05/10 11:08:47;;;;;;;4.03;3.50;;;23.30;92.30;;;;;;4991550;28;20026;-73
2022/05/10 11:11:53;;;;;;;7.70;4.10;;;23.30;92.10;;;;;;4992838;28;20022;-73
2022/05/10 11:14:59;;;;;;;11.88;4.43;;;23.30;92.10;;;;;;4944584;28;20134;-73
2022/05/10 11:17:43;;;;;;;4.47;4.07;;;23.40;90.70;;;;;;4993271;28;20030;-73
2022/05/10 11:20:12;;;;;;;5.95;4.15;;;23.50;90.10;;;;;;4991660;28;20023;-73
2022/05/10 11:22:39;;;;;;;12.40;3.90;;;23.80;90.20;;;;;;4991743;28;20472;-74
2022/05/10 11:25:33;;;;;;;13.05;3.63;;;23.80;86.50;;;;;;4992194;28;20480;-73
2022/05/10 11:28:11;;;;;;;7.25;2.85;;;23.90;82.00;;;;;;4992146;28;20113;-80
2022/05/10 11:31:14;;;;;;;9.20;3.33;;;23.90;83.10;;;;;;4982917;28;20399;-80
2022/05/10 11:34:11;;;;;;;7.72;2.88;;;24.00;82.10;;;;;;4990764;28;20137;-80
2022/05/10 11:36:41;;;;;;;8.88;2.97;;;23.90;80.10;;;;;;4990968;28;20034;-80
2022/05/10 11:39:28;;;;;;;5.68;3.03;;;24.00;78.50;;;;;;4991049;28;20037;-82
2022/05/10 11:42:35;;;;;;;7.20;3.63;;;24.00;80.00;;;;;;4992003;28;20034;-81
2022/05/10 11:45:05;;;;;;;3.03;2.63;;;24.20;73.30;;;;;;4990876;28;20035;-81
2022/05/10 11:48:01;;;;;;;4.05;3.17;;;24.30;69.80;;;;;;4990727;28;20535;-80
2022/05/10 11:51:38;;;;;;;6.18;3.55;;;24.40;71.50;;;;;;4991815;28;20142;-80
2022/05/10 11:54:06;;;;;;;3.75;3.00;;;24.50;76.60;;;;;;4992011;28;20029;-84
2022/05/10 11:56:38;;;;;;;4.65;3.92;;;24.60;70.90;;;;;;4893998;29;20035;-81
2022/05/10 11:59:14;;;;;;;7.57;3.78;;;24.90;74.60;;;;;;4975340;28;20433;-81
2022/05/10 12:01:47;;;;;;;8.88;3.30;;;25.20;74.30;;;;;;4991850;28;20029;-81
2022/05/10 12:04:46;;;;;;;8.05;3.58;;;25.20;71.20;;;;;;4991744;28;20042;-81
2022/05/10 12:07:20;;;;;;;5.50;3.50;;;25.20;70.10;;;;;;4932742;28;20092;-80
2022/05/10 12:09:52;;;;;;;6.68;2.88;;;25.10;70.70;;;;;;4991871;28;20035;-80
2022/05/10 12:12:33;;;;;;;;;;;25.30;67.30;;;;;;4991645;28;20030;-81
2022/05/10 12:21:20;;;;;;;3.08;2.50;;;25.60;65.50;;;;;;4968454;28;20038;-82
2022/05/10 12:24:02;;;;;;;7.43;3.33;;;25.80;63.10;;;;;;4990212;28;20045;-80
2022/05/10 12:26:45;;;;;;;6.65;2.70;;;25.90;61.30;;;;;;4990500;28;20061;-81
2022/05/10 12:29:34;;;;;;;4.97;2.70;;;25.90;60.10;;;;;;4991570;28;20085;-80
2022/05/10 12:32:04;;;;;;;5.32;2.20;;;25.80;55.90;;;;;;4994223;28;20031;-80
2022/05/10 12:35:00;;;;;;;3.20;2.78;;;25.90;56.80;;;;;;4995212;28;20059;-80
2022/05/10 12:37:26;;;;;;;4.65;2.95;;;26.00;56.10;;;;;;4995145;28;20432;-83
2022/05/10 12:39:56;;;;;;;7.45;4.05;;;26.10;59.10;;;;;;4995292;28;20064;-82
2022/05/10 12:42:56;;;;;;;8.48;3.00;;;26.20;58.90;;;;;;4995956;28;20054;-83
2022/05/10 12:45:44;;;;;;;7.00;3.60;;;26.40;59.30;;;;;;4995090;28;20027;-84
2022/05/10 12:48:29;;;;;;;5.72;3.33;;;26.30;59.40;;;;;;4994962;28;20027;-82
2022/05/10 12:51:13;;;;;;;10.60;3.35;;;26.30;60.00;;;;;;4989879;28;20117;-82
2022/05/10 12:53:43;;;;;;;6.07;3.20;;;26.40;58.80;;;;;;5013524;28;20399;-83
2022/05/10 12:56:25;;;;;;;10.30;3.00;;;26.50;57.10;;;;;;5031103;28;20368;-83
2022/05/10 12:58:52;;;;;;;;;;;26.60;57.50;;;;;;5033164;28;20468;-84
2022/05/10 13:01:20;;;;;;;10.40;3.97;;;26.60;55.80;;;;;;5033993;28;20397;-83
2022/05/10 13:04:00;;;;;;;5.82;2.80;;;26.80;56.80;;;;;;5032533;28;20026;-83
2022/05/10 13:06:33;;;;;;;8.70;2.88;;;26.80;54.00;;;;;;5034010;28;20034;-84
2022/05/10 13:08:59;;;;;;;4.57;2.97;;;26.90;54.30;;;;;;5032656;28;20091;-84
2022/05/10 13:11:31;;;;;;;10.98;2.92;;;27.00;51.10;;;;;;5033579;28;20029;-83
2022/05/10 13:14:00;;;;;;;13.18;2.78;;;27.00;52.40;;;;;;5034611;28;20042;-84
2022/05/10 13:16:28;;;;;;;12.20;4.70;;;27.20;53.20;;;;;;5035051;28;20573;-84
2022/05/10 13:18:54;;;;;;;7.47;4.07;;;27.20;52.40;;;;;;5034925;28;20021;-84
2022/05/10 13:21:25;;;;;;;8.85;3.63;;;27.20;53.20;;;;;;5035015;28;20029;-84
2022/05/10 13:23:53;;;;;;;6.57;2.90;;;27.20;51.30;;;;;;5034519;28;20368;-84
2022/05/10 13:26:22;;;;;;;7.00;3.00;;;27.30;53.80;;;;;;5033398;28;20026;-83
2022/05/10 13:29:00;;;;;;;10.82;3.83;;;27.30;50.40;;;;;;5032146;28;20110;-84
2022/05/10 13:31:35;;;;;;;7.95;4.22;;;27.40;54.20;;;;;;5033509;28;20116;-84